70LL weather

Adams Restricted Landing Area Number 1
Pontiac, Illinois, United States

Public forecast

Using degrees Fahrenheit for public forecast. Weather courtesy of forecast.io.

METAR (pilot weather report)

Closest report is Pontiac Municipal Airport, 5.8 nm (10.8 km) E. Retrieved 2019/08/21 01:35 UTC (25 minutes ago):

KPNT 210135Z AUTO 00000KT 10SM CLR 22/21 A2996 RMK AO2 T02180210

TAF (pilot weather forecast)

Forecast is more than 12 hours old.

Closest forecast is Central Illinois Regional Airport at Bloomington-Normal, 28.9 nm (53.5 km) SSW. Retrieved 2019/08/20 00:33 UTC (1 day ago):

TAF KBMI 202329Z 2100/2124 VRB05KT P6SM SCT120 BKN250 TEMPO 2109/2112 4SM BR FM211200 30007KT P6SM BKN020 FM211700 31011KT P6SM VCSH BKN035 BKN180